»·PEaware :: N58144 KLAS-KSMO

N58144 :: KLAS-KSMO

FLIGHT INFORMATION

Flight Status: Arrived
Operator: Privately registered:
United States
More flights under this callsign
Pilot: Daniel L. (26794)
Aircraft: MOONEY M-20K/M ENCORE BRAVO
(M20T)
More flights by this aircraft type
Origin: KLAS McCarran Intl
United States
Destination: KSMO Santa Monica Mun
United States
More flights between these airports :: More routes between these airports
Route: +LAS V394 APLES V442 PDZ V186 DARTS
File this flight plan on PilotEdge
Remarks:
Altitude:
(Current/Filed)
14,000ft
Speed:
(Current/Filed)
170kts
Departed: 23-Mar-20 11:21 AM
Arrived: 23-Mar-20 12:50 PM
Distance/Time
Traveled:
204nm/1:29
Distance/Time
To Go:
Arrived

Flight Plot

Page will automatically refresh every two minutes.

Flight plan parsing failed; only flown route is shown


Map Options




Map Legend


Flown Route
Filed Route
Departure Airport
Arrival Airport
Navaid (VOR, NDB)
Fix

Horizontal Profiles

Position Reports

Time Latitude Longitude Heading Altitude Ground
Speed
23-Mar-20 10:53 36.096655 -115.163771 0 2110ft 0kts
23-Mar-20 10:54 36.096655 -115.163770 178 2110ft 0kts
23-Mar-20 10:55 36.096655 -115.163770 178 2110ft 0kts
23-Mar-20 10:56 36.096655 -115.163770 178 2110ft 0kts
23-Mar-20 10:57 36.096655 -115.163770 178 2110ft 0kts
23-Mar-20 10:58 36.096655 -115.163770 178 2110ft 0kts
23-Mar-20 10:59 36.096568 -115.163281 82 2108ft 0kts
23-Mar-20 11:00 36.096568 -115.163279 82 2108ft 0kts
23-Mar-20 11:02 36.096568 -115.163279 82 2108ft 0kts
23-Mar-20 11:03 36.096568 -115.163279 82 2108ft 0kts
23-Mar-20 11:04 36.096568 -115.163279 82 2108ft 0kts
23-Mar-20 11:05 36.096568 -115.163279 82 2108ft 0kts
23-Mar-20 11:06 36.096568 -115.163279 82 2108ft 0kts
23-Mar-20 11:07 36.096568 -115.163279 82 2108ft 0kts
23-Mar-20 11:08 36.096568 -115.163279 82 2108ft 0kts
23-Mar-20 11:09 36.096568 -115.163279 82 2108ft 0kts
23-Mar-20 11:10 36.096568 -115.163279 82 2108ft 0kts
23-Mar-20 11:11 36.096568 -115.163279 82 2108ft 0kts
23-Mar-20 11:12 36.096568 -115.163279 82 2108ft 0kts
23-Mar-20 11:13 36.096568 -115.163279 82 2108ft 0kts
23-Mar-20 11:14 36.097421 -115.161409 32 2101ft 17kts
23-Mar-20 11:15 36.099706 -115.158063 67 2085ft 0kts
23-Mar-20 11:16 36.099706 -115.158062 67 2085ft 0kts
23-Mar-20 11:17 36.099725 -115.158008 67 2085ft 0kts
23-Mar-20 11:18 36.099727 -115.158002 67 2085ft 0kts
23-Mar-20 11:19 36.099727 -115.158002 67 2085ft 0kts
23-Mar-20 11:20 36.099727 -115.158002 67 2085ft 0kts
23-Mar-20 11:21 36.094578 -115.159586 209 2143ft 78kts
23-Mar-20 11:21 36.075025 -115.169295 189 3005ft 94kts
23-Mar-20 11:22 36.047348 -115.171557 187 4285ft 100kts
23-Mar-20 11:24 36.016177 -115.172945 187 5697ft 90kts
23-Mar-20 11:24 35.994830 -115.173140 186 6609ft 89kts
23-Mar-20 11:25 35.969229 -115.172839 186 7686ft 89kts
23-Mar-20 11:27 35.938953 -115.171943 186 8936ft 90kts
23-Mar-20 11:27 35.916615 -115.170989 186 9708ft 101kts
23-Mar-20 11:28 35.882888 -115.170629 186 10343ft 128kts
23-Mar-20 11:29 35.843625 -115.170799 186 10988ft 139kts
23-Mar-20 11:30 35.802112 -115.170958 186 11630ft 143kts
23-Mar-20 11:31 35.760056 -115.170902 186 12265ft 145kts
23-Mar-20 11:32 35.717621 -115.170363 186 12900ft 145kts
23-Mar-20 11:33 35.675487 -115.169210 186 13530ft 145kts
23-Mar-20 11:34 35.633230 -115.167488 186 14002ft 153kts
23-Mar-20 11:35 35.585486 -115.166193 186 14003ft 169kts
23-Mar-20 11:36 35.542891 -115.182022 245 14012ft 168kts
23-Mar-20 11:37 35.523434 -115.238074 241 14008ft 170kts
23-Mar-20 11:38 35.501330 -115.293000 240 14007ft 171kts
23-Mar-20 11:39 35.479329 -115.346587 240 14007ft 171kts
23-Mar-20 11:40 35.456440 -115.402127 240 14006ft 171kts
23-Mar-20 11:41 35.433931 -115.456641 240 14006ft 171kts
23-Mar-20 11:42 35.411335 -115.511272 240 14005ft 171kts
23-Mar-20 11:43 35.388658 -115.566008 240 14005ft 171kts
23-Mar-20 11:44 35.365746 -115.621222 240 14005ft 171kts
23-Mar-20 11:45 35.342918 -115.676137 239 14009ft 171kts
23-Mar-20 11:46 35.320376 -115.730284 239 14019ft 171kts
23-Mar-20 11:47 35.297501 -115.785133 239 14031ft 171kts
23-Mar-20 11:48 35.274845 -115.839372 239 14043ft 171kts
23-Mar-20 11:49 35.252238 -115.893405 239 14055ft 170kts
23-Mar-20 11:50 35.229578 -115.947475 239 14062ft 170kts
23-Mar-20 11:51 35.206701 -116.001977 239 14062ft 171kts
23-Mar-20 11:52 35.183754 -116.056555 239 14061ft 170kts
23-Mar-20 11:53 35.160772 -116.111128 239 14061ft 170kts
23-Mar-20 11:54 35.137811 -116.165474 243 14062ft 172kts
23-Mar-20 11:55 35.114701 -116.220249 243 14061ft 173kts
23-Mar-20 11:56 35.091592 -116.274863 243 14061ft 174kts
23-Mar-20 11:57 35.068380 -116.329628 243 14060ft 174kts
23-Mar-20 11:58 35.045449 -116.383637 243 14060ft 174kts
23-Mar-20 11:59 35.022094 -116.438555 244 14065ft 172kts
23-Mar-20 12:00 34.999059 -116.492425 244 14072ft 170kts
23-Mar-20 12:01 34.976738 -116.544709 244 14078ft 167kts
23-Mar-20 12:02 34.951119 -116.593030 235 14081ft 166kts
23-Mar-20 12:03 34.921233 -116.635325 235 14083ft 163kts
23-Mar-20 12:04 34.891785 -116.676315 235 14095ft 161kts
23-Mar-20 12:05 34.866234 -116.711772 236 14095ft 160kts
23-Mar-20 12:06 34.830981 -116.760614 236 14094ft 159kts
23-Mar-20 12:07 34.801714 -116.801102 236 14094ft 159kts
23-Mar-20 12:08 34.771080 -116.843433 236 14047ft 161kts
23-Mar-20 12:09 34.741091 -116.884818 236 13974ft 161kts
23-Mar-20 12:10 34.710501 -116.926974 236 13978ft 161kts
23-Mar-20 12:11 34.680516 -116.968261 237 13982ft 164kts
23-Mar-20 12:12 34.649450 -117.010984 237 13986ft 167kts
23-Mar-20 12:13 34.619198 -117.052533 237 13990ft 171kts
23-Mar-20 12:14 34.585990 -117.098084 237 13995ft 174kts
23-Mar-20 12:15 34.553302 -117.142512 231 13996ft 181kts
23-Mar-20 12:16 34.507712 -117.173977 218 14008ft 190kts
23-Mar-20 12:17 34.461970 -117.202015 217 13338ft 175kts
23-Mar-20 12:18 34.418681 -117.228370 216 12524ft 173kts
23-Mar-20 12:19 34.376126 -117.254196 216 11722ft 173kts
23-Mar-20 12:20 34.333109 -117.280256 215 10916ft 174kts
23-Mar-20 12:21 34.289748 -117.306496 215 10107ft 175kts
23-Mar-20 12:22 34.246021 -117.332960 214 9300ft 177kts
23-Mar-20 12:23 34.204493 -117.358036 213 8547ft 178kts
23-Mar-20 12:24 34.161794 -117.383804 212 8003ft 189kts
23-Mar-20 12:25 34.114700 -117.412143 212 7997ft 193kts
23-Mar-20 12:26 34.067284 -117.440659 212 7996ft 192kts
23-Mar-20 12:27 34.018780 -117.469800 212 7997ft 189kts
23-Mar-20 12:28 33.972039 -117.497847 212 7999ft 185kts
23-Mar-20 12:29 33.931336 -117.529850 258 7996ft 170kts
23-Mar-20 12:30 33.937695 -117.583548 286 7201ft 154kts
23-Mar-20 12:31 33.951732 -117.631714 289 6392ft 154kts
23-Mar-20 12:32 33.966960 -117.679553 288 6000ft 138kts
23-Mar-20 12:33 33.981401 -117.724501 289 5999ft 157kts
23-Mar-20 12:34 33.997869 -117.775399 289 5994ft 170kts
23-Mar-20 12:35 34.015454 -117.829900 289 5992ft 172kts
23-Mar-20 12:36 34.032713 -117.883562 290 5991ft 172kts
23-Mar-20 12:37 34.049913 -117.937132 291 5991ft 172kts
23-Mar-20 12:38 34.067526 -117.992039 292 5991ft 173kts
23-Mar-20 12:39 34.084591 -118.045347 293 5991ft 174kts
23-Mar-20 12:40 34.101169 -118.100341 283 5950ft 177kts
23-Mar-20 12:41 34.107959 -118.155840 281 5243ft 161kts
23-Mar-20 12:42 34.114366 -118.208351 281 4558ft 161kts
23-Mar-20 12:43 34.121191 -118.261892 281 3989ft 154kts
23-Mar-20 12:44 34.107133 -118.307053 228 2990ft 154kts
23-Mar-20 12:45 34.078193 -118.346050 231 2250ft 153kts
23-Mar-20 12:46 34.061073 -118.387424 251 1391ft 128kts
23-Mar-20 12:47 34.053770 -118.424399 247 1114ft 97kts
23-Mar-20 12:48 34.030804 -118.432865 222 711ft 76kts
23-Mar-20 12:49 34.017061 -118.449779 228 145ft 25kts
23-Mar-20 12:50 34.014251 -118.452335 136 132ft 0kts
23-Mar-20 12:51 34.012616 -118.453648 329 125ft 0kts
23-Mar-20 12:52 34.012616 -118.453648 329 125ft 0kts
23-Mar-20 12:53 34.012616 -118.453648 329 125ft 0kts
23-Mar-20 12:54 34.012616 -118.453648 329 125ft 0kts
23-Mar-20 12:55 34.012616 -118.453648 329 125ft 0kts
23-Mar-20 12:56 34.012616 -118.453648 329 125ft 0kts
23-Mar-20 12:57 34.012616 -118.453648 329 125ft 0kts
23-Mar-20 12:58 34.012616 -118.453648 329 125ft 0kts
23-Mar-20 12:59 34.012616 -118.453648 329 125ft 0kts
23-Mar-20 13:00 34.012616 -118.453648 329 125ft 0kts
23-Mar-20 13:01 34.012616 -118.453648 329 125ft 0kts
23-Mar-20 13:02 34.012616 -118.453648 329 125ft 0kts
23-Mar-20 13:03 34.012616 -118.453648 329 125ft 0kts

Navigation Log

Ident Type
Flight plan parsing failed, navigation log unavailable